Time;durP1;ratioP1;P1;durP2;ratioP2;P2;SDS_P1;SDS_P2;PMS_P1;PMS_P2;Temp;Humidity;BMP_temperature;BMP_pressure;BME280_temperature;BME280_humidity;BME280_pressure;Samples;Min_cycle;Max_cycle;Signal;HPM_P1;HPM_P2
2021/09/28 00:01:01;;;;;;;0.10;0.10;;;;;;;15.74;64.87;102141.75;5046299;28;20381;-81
2021/09/28 00:03:28;;;;;;;0.10;0.10;;;;;;;15.76;65.06;102139.03;5035437;28;20041;-81
2021/09/28 00:05:54;;;;;;;0.15;0.15;;;;;;;15.87;64.42;102138.84;5035572;28;20163;-80
2021/09/28 00:08:21;;;;;;;0.10;0.10;;;;;;;15.81;64.84;102139.81;5035151;28;20029;-80
2021/09/28 00:10:47;;;;;;;0.10;0.10;;;;;;;15.82;64.76;102147.81;5035114;28;20473;-80
2021/09/28 00:13:13;;;;;;;0.10;0.10;;;;;;;15.78;64.92;102147.91;5035271;28;20124;-80
2021/09/28 00:15:40;;;;;;;0.10;0.10;;;;;;;15.77;64.86;102147.00;5034948;28;20473;-80
2021/09/28 00:18:06;;;;;;;0.10;0.10;;;;;;;15.75;65.04;102151.53;5034825;28;20022;-81
2021/09/28 00:20:37;;;;;;;0.10;0.10;;;;;;;15.70;65.07;102161.41;5034842;28;20484;-79
2021/09/28 00:23:07;;;;;;;0.10;0.10;;;;;;;15.69;64.97;102163.19;5034843;28;20029;-80
2021/09/28 00:25:33;;;;;;;0.10;0.10;;;;;;;15.64;65.18;102161.56;5034492;28;20051;-80
2021/09/28 00:27:59;;;;;;;0.10;0.10;;;;;;;15.59;65.22;102163.41;5035987;28;20388;-79
2021/09/28 00:30:26;;;;;;;0.55;0.55;;;;;;;15.58;65.21;102164.34;5048626;28;20109;-80
2021/09/28 00:32:52;;;;;;;0.40;0.40;;;;;;;15.52;65.68;102163.53;5054322;28;20031;-80
2021/09/28 00:35:19;;;;;;;0.00;0.00;;;;;;;15.53;65.20;102167.09;5043814;28;20491;-80
2021/09/28 00:37:45;;;;;;;0.10;0.10;;;;;;;15.50;65.63;102169.81;5035268;28;20034;-79
2021/09/28 00:40:12;;;;;;;0.08;0.08;;;;;;;15.41;65.77;102170.88;5054617;28;20033;-80
2021/09/28 00:42:38;;;;;;;0.20;0.20;;;;;;;15.40;65.97;102173.59;5053992;28;20051;-80
2021/09/28 00:45:07;;;;;;;0.17;0.17;;;;;;;15.40;65.76;102169.09;5034394;28;20036;-79
2021/09/28 00:47:35;;;;;;;0.10;0.10;;;;;;;15.39;65.94;102169.13;5035165;28;20116;-79
2021/09/28 00:50:01;;;;;;;0.10;0.10;;;;;;;15.34;66.15;102175.47;5034856;28;20065;-80
2021/09/28 00:52:28;;;;;;;0.03;0.03;;;;;;;15.33;65.73;102172.81;5051031;28;20036;-80
2021/09/28 00:54:55;;;;;;;0.45;0.45;;;;;;;15.29;66.11;102177.34;5044981;28;20116;-80
2021/09/28 00:57:21;;;;;;;0.10;0.10;;;;;;;15.27;66.23;102171.13;5034467;28;20155;-79
2021/09/28 00:59:48;;;;;;;0.00;0.00;;;;;;;15.26;66.20;102179.19;5044826;28;20033;-81
2021/09/28 01:02:14;;;;;;;0.10;0.10;;;;;;;15.25;65.96;102178.28;5053763;28;20036;-80
2021/09/28 01:04:42;;;;;;;0.10;0.10;;;;;;;15.25;65.86;102180.94;5053847;28;20087;-77
2021/09/28 01:07:10;;;;;;;0.00;0.00;;;;;;;15.24;66.04;102189.91;5043456;28;20480;-77
2021/09/28 01:09:38;;;;;;;0.10;0.10;;;;;;;15.18;66.40;102184.66;5040856;28;20040;-77
2021/09/28 01:12:06;;;;;;;0.10;0.10;;;;;;;15.15;66.12;102196.28;5037906;28;20026;-76
2021/09/28 01:14:33;;;;;;;0.10;0.10;;;;;;;15.07;66.78;102192.84;5037213;28;20036;-77
2021/09/28 01:17:00;;;;;;;0.10;0.10;;;;;;;15.10;66.42;102190.13;5053468;28;20024;-80
2021/09/28 01:19:26;;;;;;;2.50;1.00;;;;;;;15.05;66.56;102194.66;5053704;28;20040;-77
2021/09/28 01:21:53;;;;;;;0.10;0.10;;;;;;;15.06;66.57;102185.75;5053516;28;20428;-77
2021/09/28 01:24:20;;;;;;;0.10;0.10;;;;;;;15.04;66.53;102193.78;5051155;28;20051;-80
2021/09/28 01:26:46;;;;;;;0.10;0.10;;;;;;;15.03;66.48;102191.16;5040045;28;20497;-80
2021/09/28 01:29:13;;;;;;;0.10;0.10;;;;;;;15.04;66.41;102190.22;5051911;28;20025;-79
2021/09/28 01:31:39;;;;;;;0.10;0.10;;;;;;;14.99;66.60;102198.31;5033584;28;20064;-80
2021/09/28 01:34:07;;;;;;;0.15;0.15;;;;;;;14.99;66.49;102192.09;5042140;28;20025;-80
2021/09/28 01:36:34;;;;;;;0.10;0.10;;;;;;;14.95;66.79;102193.94;5053385;28;20028;-80
2021/09/28 01:39:01;;;;;;;0.57;0.57;;;;;;;14.95;66.53;102198.41;5053652;28;20081;-79
2021/09/28 01:41:27;;;;;;;0.10;0.10;;;;;;;14.92;66.74;102190.47;5040226;28;20349;-80
2021/09/28 01:44:11;;;;;;;0.30;0.30;;;;;;;15.01;66.64;102195.63;5043710;28;20053;-80
2021/09/28 01:46:41;;;;;;;0.10;0.10;;;;;;;14.94;66.80;102186.84;5052122;28;20028;-80
2021/09/28 01:49:09;;;;;;;0.80;0.80;;;;;;;14.93;66.64;102187.75;5045137;28;20037;-80
2021/09/28 01:51:36;;;;;;;0.82;0.82;;;;;;;14.87;66.79;102180.72;5052864;28;20028;-79
2021/09/28 01:54:04;;;;;;;0.10;0.10;;;;;;;14.86;66.97;102192.28;5036649;28;20057;-79
2021/09/28 01:56:30;;;;;;;0.10;0.10;;;;;;;14.90;66.61;102186.94;5033109;28;20033;-80
2021/09/28 01:58:59;;;;;;;0.10;0.10;;;;;;;14.91;66.81;102186.03;5041975;28;20021;-79
2021/09/28 02:01:27;;;;;;;0.10;0.10;;;;;;;14.90;66.64;102189.59;5033813;28;20037;-79
2021/09/28 02:03:53;;;;;;;0.10;0.10;;;;;;;14.87;66.73;102190.53;5033412;28;20017;-80
2021/09/28 02:06:22;;;;;;;0.10;0.10;;;;;;;14.85;66.81;102187.88;5033140;28;20038;-80
2021/09/28 02:08:50;;;;;;;0.10;0.10;;;;;;;14.85;66.60;102189.66;5034097;28;20083;-78
2021/09/28 02:11:16;;;;;;;0.10;0.10;;;;;;;14.82;67.05;102185.25;5053055;28;20116;-78
2021/09/28 02:13:43;;;;;;;0.10;0.10;;;;;;;14.82;66.70;102193.25;5044292;28;20029;-80
2021/09/28 02:16:10;;;;;;;0.00;0.00;;;;;;;14.81;66.66;102191.50;5048445;28;20500;-79
2021/09/28 02:18:36;;;;;;;0.10;0.10;;;;;;;14.79;66.91;102195.09;5053463;28;20452;-79
2021/09/28 02:21:03;;;;;;;0.08;0.08;;;;;;;14.77;66.96;102199.59;5053111;28;20029;-80
2021/09/28 02:23:30;;;;;;;0.10;0.10;;;;;;;14.76;67.00;102203.16;5051417;28;20107;-80
2021/09/28 02:25:56;;;;;;;0.30;0.30;;;;;;;14.73;66.99;102206.75;5033027;28;20408;-79
2021/09/28 02:28:23;;;;;;;0.10;0.10;;;;;;;14.74;67.11;102200.50;5035601;28;20068;-79
2021/09/28 02:30:49;;;;;;;0.10;0.10;;;;;;;14.72;67.40;102203.19;5041597;28;20029;-80
2021/09/28 02:33:16;;;;;;;0.10;0.10;;;;;;;14.68;67.37;102201.50;5037484;28;20033;-80
2021/09/28 02:35:43;;;;;;;0.90;0.90;;;;;;;14.70;67.29;102206.78;5036904;28;20021;-80
2021/09/28 02:38:10;;;;;;;0.30;0.30;;;;;;;14.70;67.20;102204.13;5051880;28;20111;-80
2021/09/28 02:40:36;;;;;;;0.05;0.05;;;;;;;14.62;66.90;102200.69;5053513;28;20059;-79
2021/09/28 02:43:03;;;;;;;0.10;0.10;;;;;;;14.66;67.37;102203.28;5052568;28;20022;-82
2021/09/28 02:45:30;;;;;;;0.10;0.10;;;;;;;14.61;66.91;102202.44;5052906;28;20115;-81
2021/09/28 02:47:56;;;;;;;0.30;0.30;;;;;;;14.65;67.47;102205.97;5053035;28;20044;-81
2021/09/28 02:50:22;;;;;;;0.10;0.10;;;;;;;14.64;67.68;102212.19;5053128;28;20464;-80
2021/09/28 02:52:49;;;;;;;0.10;0.10;;;;;;;14.66;67.16;102202.41;5050340;28;20036;-80
2021/09/28 02:55:15;;;;;;;0.10;0.10;;;;;;;14.63;67.64;102202.41;5055376;28;20539;-80
2021/09/28 02:57:41;;;;;;;0.80;0.80;;;;;;;14.65;67.64;102208.66;5053466;28;20113;-79
2021/09/28 03:00:09;;;;;;;7.88;0.32;;;;;;;14.68;67.33;102205.97;5056323;28;20040;-81
2021/09/28 03:02:36;;;;;;;0.10;0.10;;;;;;;14.66;66.70;102215.75;5051615;28;20421;-78
2021/09/28 03:05:02;;;;;;;0.00;0.00;;;;;;;14.64;67.56;102210.41;5044645;28;20029;-81
2021/09/28 03:07:29;;;;;;;0.52;0.52;;;;;;;14.66;67.16;102213.09;5056177;28;20108;-81
2021/09/28 03:09:55;;;;;;;0.10;0.10;;;;;;;14.63;67.39;102219.31;5056122;28;20029;-81
2021/09/28 03:12:21;;;;;;;1.30;1.30;;;;;;;14.63;66.90;102221.09;5056012;28;20074;-79
2021/09/28 03:14:48;;;;;;;0.10;0.10;;;;;;;14.61;67.30;102218.44;5056225;28;20495;-80
2021/09/28 03:17:14;;;;;;;0.10;0.10;;;;;;;14.62;67.07;102222.03;5055890;28;20488;-80
2021/09/28 03:19:40;;;;;;;0.20;0.20;;;;;;;14.57;67.13;102225.63;5045477;28;20037;-81
2021/09/28 03:22:07;;;;;;;0.20;0.20;;;;;;;14.59;67.00;102227.38;5041247;28;20021;-80
2021/09/28 03:24:33;;;;;;;0.10;0.10;;;;;;;14.57;67.22;102225.63;5036029;28;20384;-80
2021/09/28 03:26:59;;;;;;;0.10;0.10;;;;;;;14.55;67.15;102230.09;5046894;28;20036;-80
2021/09/28 03:29:25;;;;;;;0.05;0.05;;;;;;;14.56;66.75;102233.66;5055512;28;20116;-81
2021/09/28 03:31:52;;;;;;;0.10;0.10;;;;;;;14.53;66.63;102228.38;5055933;28;20033;-80
2021/09/28 03:34:18;;;;;;;0.05;0.05;;;;;;;14.50;67.24;102233.72;5055430;28;20094;-81
2021/09/28 03:36:44;;;;;;;0.10;0.10;;;;;;;14.48;66.87;102235.53;5055964;28;20027;-81
2021/09/28 03:39:11;;;;;;;0.00;0.00;;;;;;;14.45;67.00;102236.47;5052570;28;20040;-77
2021/09/28 03:41:38;;;;;;;0.10;0.10;;;;;;;14.38;66.94;102234.78;5043833;28;20052;-81
2021/09/28 03:44:04;;;;;;;4.68;0.73;;;;;;;14.35;67.52;102242.81;5046943;28;20063;-80
2021/09/28 03:46:30;;;;;;;0.10;0.10;;;;;;;14.35;67.49;102232.16;5054991;28;20465;-81
2021/09/28 03:48:56;;;;;;;0.25;0.25;;;;;;;14.38;67.22;102240.09;5055205;28;20119;-81
2021/09/28 03:51:23;;;;;;;0.10;0.10;;;;;;;14.38;67.23;102245.44;5046246;28;20032;-78
2021/09/28 03:53:52;;;;;;;0.10;0.10;;;;;;;14.39;66.85;102237.44;5055141;28;20079;-78
2021/09/28 03:56:20;;;;;;;0.10;0.10;;;;;;;14.40;67.01;102240.97;5055186;28;20025;-78
2021/09/28 03:58:47;;;;;;;0.10;0.10;;;;;;;14.36;67.18;102242.78;5055244;28;20048;-78
2021/09/28 04:01:14;;;;;;;0.00;0.00;;;;;;;14.35;67.00;102242.81;5047561;28;20409;-78
2021/09/28 04:03:42;;;;;;;0.10;0.10;;;;;;;14.35;66.89;102249.03;5043222;28;20381;-78
2021/09/28 04:06:09;;;;;;;0.10;0.10;;;;;;;14.32;66.91;102250.88;5034623;28;20037;-78
2021/09/28 04:08:36;;;;;;;0.10;0.10;;;;;;;14.30;67.07;102250.00;5035144;28;20040;-78
2021/09/28 04:11:03;;;;;;;0.00;0.00;;;;;;;14.32;66.75;102248.22;5034945;28;20064;-77
2021/09/28 04:13:30;;;;;;;0.10;0.10;;;;;;;14.28;67.09;102249.13;5034844;28;20033;-78
2021/09/28 04:15:57;;;;;;;0.10;0.10;;;;;;;14.23;67.31;102257.19;5035212;28;20064;-78
2021/09/28 04:18:24;;;;;;;0.13;0.13;;;;;;;14.26;67.31;102253.63;5037035;28;20037;-79
2021/09/28 04:20:50;;;;;;;0.50;0.50;;;;;;;14.28;67.03;102251.81;5043706;28;20472;-78
2021/09/28 04:23:18;;;;;;;0.57;0.57;;;;;;;14.23;67.27;102258.09;5034396;28;20132;-79
2021/09/28 04:25:46;;;;;;;0.10;0.10;;;;;;;14.29;66.86;102251.78;5034906;28;20033;-80
2021/09/28 04:28:14;;;;;;;0.15;0.15;;;;;;;14.28;66.92;102265.13;5034337;28;20030;-79
2021/09/28 04:30:40;;;;;;;0.10;0.10;;;;;;;14.26;66.94;102257.16;5037860;28;20469;-80
2021/09/28 04:33:07;;;;;;;0.00;0.00;;;;;;;14.25;66.99;102260.72;5034656;28;20038;-77
2021/09/28 04:35:34;;;;;;;0.10;0.10;;;;;;;14.27;66.90;102263.34;5034664;28;20060;-78
2021/09/28 04:38:01;;;;;;;0.10;0.10;;;;;;;14.23;67.05;102260.75;5034255;28;20029;-78
2021/09/28 04:40:27;;;;;;;0.10;0.10;;;;;;;14.24;66.48;102265.19;5034602;28;20426;-81
2021/09/28 04:42:54;;;;;;;0.22;0.22;;;;;;;14.23;66.90;102266.06;5035865;28;20032;-78
2021/09/28 04:45:21;;;;;;;0.00;0.00;;;;;;;14.21;67.16;102265.19;5054087;28;20032;-79
2021/09/28 04:47:47;;;;;;;0.10;0.10;;;;;;;14.21;67.10;102264.34;5053971;28;20039;-81
2021/09/28 04:50:13;;;;;;;0.10;0.10;;;;;;;14.26;66.97;102266.94;5054317;28;20396;-80
2021/09/28 04:52:40;;;;;;;0.00;0.00;;;;;;;14.30;66.93;102264.19;5053176;28;20468;-79
2021/09/28 04:55:07;;;;;;;0.10;0.10;;;;;;;14.31;67.12;102262.44;5054225;28;20025;-78
2021/09/28 04:57:33;;;;;;;0.10;0.10;;;;;;;14.35;66.93;102261.50;5053666;28;20380;-81
2021/09/28 05:00:00;;;;;;;0.03;0.03;;;;;;;14.37;66.89;102262.38;5053933;28;20119;-80
2021/09/28 05:02:26;;;;;;;0.10;0.10;;;;;;;14.39;66.88;102264.09;5048732;28;20521;-80
2021/09/28 05:04:52;;;;;;;0.10;0.10;;;;;;;14.41;66.79;102269.41;5054019;28;20472;-81
2021/09/28 05:07:18;;;;;;;0.10;0.10;;;;;;;14.41;66.97;102266.75;5054033;28;20029;-80
2021/09/28 05:09:44;;;;;;;0.10;0.10;;;;;;;14.45;66.63;102267.59;5053796;28;20028;-80
2021/09/28 05:12:10;;;;;;;0.10;0.10;;;;;;;14.45;66.61;102257.78;5053504;28;20037;-81
2021/09/28 05:14:37;;;;;;;0.10;0.10;;;;;;;14.51;66.61;102262.16;5053099;28;20120;-81
2021/09/28 05:17:03;;;;;;;0.00;0.00;;;;;;;14.49;66.49;102261.28;5053680;28;20053;-81
2021/09/28 05:19:29;;;;;;;0.10;0.10;;;;;;;14.50;66.11;102265.72;5053915;28;20028;-81
2021/09/28 05:21:56;;;;;;;0.10;0.10;;;;;;;14.46;66.30;102270.22;5053763;28;20542;-82
2021/09/28 05:24:23;;;;;;;0.10;0.10;;;;;;;14.42;66.49;102281.84;5052308;28;20033;-81
2021/09/28 05:26:49;;;;;;;0.20;0.20;;;;;;;14.37;66.48;102275.69;5053389;28;20021;-81
2021/09/28 05:29:15;;;;;;;0.10;0.10;;;;;;;14.35;66.41;102273.03;5053129;28;20025;-80
2021/09/28 05:31:41;;;;;;;0.10;0.10;;;;;;;14.31;66.43;102271.31;5046412;28;20029;-81
2021/09/28 05:34:07;;;;;;;0.10;0.10;;;;;;;14.31;66.42;102283.78;5041745;28;20045;-80
2021/09/28 05:36:33;;;;;;;0.10;0.10;;;;;;;14.29;66.53;102280.22;5041145;28;20142;-80
2021/09/28 05:38:59;;;;;;;0.10;0.10;;;;;;;14.23;66.47;102278.50;5033339;28;20117;-81
2021/09/28 05:41:26;;;;;;;0.08;0.08;;;;;;;14.16;66.64;102277.72;5036066;28;20033;-81
2021/09/28 05:43:52;;;;;;;0.10;0.10;;;;;;;14.16;66.96;102285.72;5050446;28;20029;-79
2021/09/28 05:46:18;;;;;;;0.10;0.10;;;;;;;14.15;66.70;102283.94;5053176;28;20084;-80
2021/09/28 05:48:45;;;;;;;0.10;0.10;;;;;;;14.13;66.69;102293.75;5052737;28;20492;-78
2021/09/28 05:51:17;;;;;;;0.10;0.10;;;;;;;14.15;67.17;102289.28;5053334;28;20045;-81
2021/09/28 05:53:45;;;;;;;0.10;0.10;;;;;;;14.11;67.01;102287.56;5053200;28;20534;-80
2021/09/28 05:56:13;;;;;;;0.10;0.10;;;;;;;14.11;67.07;102290.22;5053559;28;20345;-79
2021/09/28 05:58:39;;;;;;;0.10;0.10;;;;;;;14.12;66.99;102294.66;5053468;28;20024;-81
2021/09/28 06:01:05;;;;;;;0.10;0.10;;;;;;;14.10;66.98;102293.78;5049446;28;20514;-79
2021/09/28 06:03:32;;;;;;;0.10;0.10;;;;;;;14.11;66.77;102300.00;5042038;28;20056;-80
2021/09/28 06:05:59;;;;;;;0.73;0.73;;;;;;;14.13;67.13;102299.09;5044835;28;20029;-79
2021/09/28 06:08:25;;;;;;;0.10;0.10;;;;;;;14.14;66.77;102298.16;5033150;28;20203;-79
2021/09/28 06:10:51;;;;;;;0.10;0.10;;;;;;;14.14;67.14;102295.50;5033337;28;20029;-81
2021/09/28 06:13:18;;;;;;;0.10;0.10;;;;;;;14.13;66.91;102299.09;5033378;28;20025;-81
2021/09/28 06:15:44;;;;;;;0.10;0.10;;;;;;;14.14;66.87;102306.16;5033359;28;20026;-81
2021/09/28 06:18:10;;;;;;;0.10;0.10;;;;;;;14.15;67.09;102302.59;5033089;28;20029;-81
2021/09/28 06:20:36;;;;;;;0.10;0.10;;;;;;;14.16;66.81;102300.84;5033396;28;20029;-80
2021/09/28 06:23:02;;;;;;;0.20;0.20;;;;;;;14.17;66.50;102300.81;5032693;28;20026;-80
2021/09/28 06:25:29;;;;;;;0.10;0.10;;;;;;;14.14;66.85;102311.50;5032908;28;20033;-81
2021/09/28 06:27:55;;;;;;;0.10;0.10;;;;;;;14.13;67.04;102309.75;5035234;28;20026;-81
2021/09/28 06:30:21;;;;;;;0.10;0.10;;;;;;;14.20;66.69;102311.41;5037009;28;20116;-80
2021/09/28 06:32:47;;;;;;;0.13;0.13;;;;;;;14.20;66.96;102311.41;5051905;28;20498;-81
2021/09/28 06:35:13;;;;;;;0.00;0.00;;;;;;;14.21;66.92;102313.19;5044124;28;20044;-80
2021/09/28 06:37:39;;;;;;;0.10;0.10;;;;;;;14.18;66.97;102307.91;5041257;28;20108;-79
2021/09/28 06:40:06;;;;;;;0.10;0.10;;;;;;;14.26;67.09;102313.13;5056816;28;20064;-79
2021/09/28 06:42:32;;;;;;;0.10;0.10;;;;;;;14.29;67.22;102307.75;5056782;28;20095;-80
2021/09/28 06:44:59;;;;;;;0.40;0.40;;;;;;;14.30;66.84;102312.19;5050232;28;20072;-80
2021/09/28 06:47:25;;;;;;;0.10;0.10;;;;;;;14.34;66.83;102311.28;5045174;28;20448;-81
2021/09/28 06:49:51;;;;;;;0.10;0.10;;;;;;;14.37;66.85;102310.34;5048622;28;20049;-81
2021/09/28 06:52:17;;;;;;;0.10;0.10;;;;;;;14.37;66.87;102308.56;5035475;28;20076;-80
2021/09/28 06:54:43;;;;;;;0.10;0.10;;;;;;;14.41;66.83;102309.41;5036699;28;20124;-85
2021/09/28 06:57:09;;;;;;;0.10;0.10;;;;;;;14.45;66.86;102307.59;5038471;28;20368;-80
2021/09/28 06:59:35;;;;;;;0.10;0.10;;;;;;;14.41;67.16;102304.06;5056016;28;20041;-80
2021/09/28 07:02:02;;;;;;;0.10;0.10;;;;;;;14.50;67.03;102300.41;5054545;28;20082;-80
2021/09/28 07:04:29;;;;;;;1.75;1.27;;;;;;;14.52;67.12;102296.81;5046634;28;20639;-79
2021/09/28 07:06:55;;;;;;;2.28;2.03;;;;;;;14.59;67.04;102302.06;5045281;28;20122;-80
2021/09/28 07:09:22;;;;;;;0.10;0.10;;;;;;;14.64;66.94;102302.88;5050416;28;20040;-80
2021/09/28 07:11:48;;;;;;;0.10;0.10;;;;;;;14.66;67.15;102301.13;5044398;28;20489;-82
2021/09/28 07:14:14;;;;;;;0.20;0.20;;;;;;;14.74;66.81;102304.53;5041754;28;20030;-80
2021/09/28 07:16:42;;;;;;;0.10;0.10;;;;;;;14.78;67.23;102302.72;5035880;28;20381;-81
2021/09/28 07:19:08;;;;;;;0.10;0.10;;;;;;;14.79;66.98;102316.06;5053294;28;20369;-81
2021/09/28 07:21:34;;;;;;;0.45;0.45;;;;;;;14.79;67.52;102315.16;5053860;28;20041;-81
2021/09/28 07:24:01;;;;;;;1.67;1.58;;;;;;;14.88;67.47;102317.72;5053791;28;20037;-81
2021/09/28 07:26:27;;;;;;;0.10;0.10;;;;;;;14.96;67.12;102321.13;5036209;28;20120;-81
2021/09/28 07:28:53;;;;;;;0.10;0.10;;;;;;;14.97;67.04;102314.03;5048980;28;20057;-82
2021/09/28 07:31:19;;;;;;;0.20;0.20;;;;;;;15.05;67.15;102317.44;5051953;28;20032;-81
2021/09/28 07:33:45;;;;;;;0.10;0.10;;;;;;;15.09;67.23;102312.94;5044077;28;20025;-79
2021/09/28 07:36:11;;;;;;;0.10;0.10;;;;;;;15.18;67.10;102319.03;5044306;28;20063;-79
2021/09/28 07:38:40;;;;;;;0.10;0.10;;;;;;;15.25;66.96;102321.59;5043833;28;20033;-81
2021/09/28 07:41:06;;;;;;;1.67;0.65;;;;;;;15.40;66.70;102318.66;5041505;28;20435;-80
2021/09/28 07:43:32;;;;;;;0.00;0.00;;;;;;;15.41;66.48;102316.91;5052402;28;20036;-80
2021/09/28 07:45:59;;;;;;;0.10;0.10;;;;;;;15.53;66.35;102325.56;5046352;28;20037;-81
2021/09/28 07:48:26;;;;;;;0.20;0.20;;;;;;;15.58;66.23;102324.63;5051975;28;20048;-80
2021/09/28 07:50:53;;;;;;;0.10;0.10;;;;;;;15.72;65.99;102325.25;5051398;28;20029;-80
2021/09/28 07:53:19;;;;;;;0.55;0.55;;;;;;;15.78;65.85;102334.97;5047175;28;20017;-80
2021/09/28 07:55:45;;;;;;;0.10;0.10;;;;;;;15.87;65.72;102333.94;5053280;28;20085;-80
2021/09/28 07:58:11;;;;;;;1.08;1.08;;;;;;;15.85;65.63;102336.66;5052217;28;20063;-80
2021/09/28 08:00:40;;;;;;;0.10;0.10;;;;;;;15.93;64.52;102328.50;5052271;28;20223;-80
2021/09/28 08:03:08;;;;;;;0.10;0.10;;;;;;;16.04;64.76;102331.84;5053045;28;20396;-81
2021/09/28 08:05:35;;;;;;;0.10;0.10;;;;;;;16.09;64.56;102326.41;5047442;28;20060;-78
2021/09/28 08:08:01;;;;;;;0.10;0.10;;;;;;;16.25;64.74;102324.28;5051324;28;20499;-79
2021/09/28 08:10:28;;;;;;;0.05;0.05;;;;;;;16.31;64.99;102327.75;5052178;28;20425;-80
2021/09/28 08:12:54;;;;;;;0.10;0.10;;;;;;;16.38;64.58;102333.84;5053327;28;20033;-80
2021/09/28 08:15:20;;;;;;;0.35;0.35;;;;;;;16.40;63.47;102336.47;5052834;28;20028;-78
2021/09/28 08:17:46;;;;;;;0.20;0.20;;;;;;;16.46;63.53;102325.63;5052706;28;20033;-80
2021/09/28 08:20:19;;;;;;;0.10;0.10;;;;;;;16.59;63.90;102328.97;5048641;28;20045;-81
2021/09/28 08:22:45;;;;;;;0.10;0.10;;;;;;;16.70;63.65;102318.91;5046340;28;20025;-79
2021/09/28 08:25:15;;;;;;;0.10;0.10;;;;;;;16.76;63.34;102316.09;5052772;28;20032;-81
2021/09/28 08:30:28;;;;;;;0.10;0.10;;;;;;;16.88;62.86;102320.25;5051356;28;20043;-81
2021/09/28 08:32:54;;;;;;;0.55;0.40;;;;;;;16.88;61.87;102330.09;5051417;28;20343;-79
2021/09/28 08:35:21;;;;;;;0.10;0.10;;;;;;;17.02;62.47;102332.50;5037429;28;20024;-78
2021/09/28 08:37:47;;;;;;;0.10;0.10;;;;;;;17.09;62.14;102332.31;5040640;28;20099;-81
2021/09/28 08:40:15;;;;;;;0.00;0.00;;;;;;;17.24;62.38;102332.88;5050656;28;20075;-79
2021/09/28 08:42:41;;;;;;;1.38;0.98;;;;;;;17.30;62.00;102338.94;5049079;28;20036;-80
2021/09/28 08:45:09;;;;;;;0.10;0.10;;;;;;;17.43;61.28;102334.19;5051975;28;20471;-78
2021/09/28 08:50:20;;;;;;;0.10;0.10;;;;;;;17.59;61.42;102333.78;5131576;27;20383;-80
2021/09/28 08:52:48;;;;;;;0.10;0.10;;;;;;;17.59;61.03;102342.69;5129547;28;20110;-79
2021/09/28 08:55:15;;;;;;;0.20;0.20;;;;;;;17.66;60.51;102324.66;5127645;28;20058;-79
2021/09/28 08:57:42;;;;;;;0.10;0.10;;;;;;;17.69;59.80;102335.28;5128056;28;20023;-80
2021/09/28 09:00:25;;;;;;;0.10;0.10;;;;;;;17.87;59.40;102328.56;5130235;28;20031;-79
2021/09/28 09:02:53;;;;;;;0.10;0.10;;;;;;;17.72;58.74;102328.97;5130975;28;20059;-81
2021/09/28 09:05:26;;;;;;;0.00;0.00;;;;;;;17.91;59.75;102334.75;5127164;28;20102;-80
2021/09/28 09:08:00;;;;;;;;;;;;;;;18.03;59.48;102334.44;5127091;28;20394;-80
2021/09/28 09:10:30;;;;;;;0.10;0.10;;;;;;;18.03;59.96;102326.41;5127002;28;19915;-80
2021/09/28 09:12:57;;;;;;;0.10;0.10;;;;;;;18.01;59.87;102333.59;5127790;28;20490;-78
2021/09/28 09:15:27;;;;;;;0.10;0.10;;;;;;;18.11;58.24;102320.81;5129965;28;20027;-78
2021/09/28 09:17:59;;;;;;;0.10;0.10;;;;;;;18.09;58.03;102323.53;5115454;28;20039;-79
2021/09/28 09:26:15;;;;;;;0.10;0.10;;;;;;;18.64;58.55;102314.81;5086565;28;20425;-80
2021/09/28 09:28:52;;;;;;;0.30;0.30;;;;;;;18.64;57.79;102314.81;5066871;28;20036;-77
2021/09/28 09:31:34;;;;;;;0.10;0.10;;;;;;;18.89;56.95;102309.53;5068697;28;20033;-78
2021/09/28 09:34:10;;;;;;;0.45;0.45;;;;;;;19.08;57.87;102300.94;5047887;28;20037;-78
2021/09/28 09:36:38;;;;;;;1.05;1.00;;;;;;;19.08;56.25;102299.09;5051775;28;20037;-80
2021/09/28 09:39:09;;;;;;;0.30;0.30;;;;;;;19.16;56.26;102296.16;5070385;28;20480;-77
2021/09/28 09:41:36;;;;;;;0.13;0.13;;;;;;;19.22;55.79;102300.47;5068221;28;20059;-79
2021/09/28 09:46:49;;;;;;;0.13;0.13;;;;;;;19.40;56.59;102294.47;5059398;28;20486;-80
2021/09/28 09:49:23;;;;;;;0.10;0.10;;;;;;;19.51;57.24;102296.78;5061393;28;20033;-79
2021/09/28 09:51:52;;;;;;;1.17;1.00;;;;;;;19.55;55.81;102295.75;5053933;28;20029;-81
2021/09/28 09:54:37;;;;;;;0.20;0.20;;;;;;;19.71;55.89;102293.41;5062562;28;20074;-80
2021/09/28 09:57:05;;;;;;;0.10;0.10;;;;;;;19.71;54.63;102293.41;5053545;28;20025;-79
2021/09/28 09:59:32;;;;;;;1.55;1.13;;;;;;;19.79;54.38;102286.84;5068473;28;20490;-79
2021/09/28 10:01:59;;;;;;;0.10;0.10;;;;;;;19.86;55.66;102285.75;5053776;28;20029;-78
2021/09/28 10:04:26;;;;;;;0.10;0.10;;;;;;;19.93;55.42;102295.34;5067800;28;20052;-79
2021/09/28 10:06:54;;;;;;;0.65;0.60;;;;;;;19.94;53.24;102289.03;5069201;28;20040;-79
2021/09/28 10:12:10;;;;;;;0.10;0.10;;;;;;;20.32;54.88;102288.53;5070316;27;20468;-77
2021/09/28 10:14:40;;;;;;;0.52;0.52;;;;;;;20.40;53.71;102290.94;5053182;28;20522;-80
2021/09/28 10:20:09;;;;;;;0.10;0.10;;;;;;;20.56;53.27;102281.34;5088432;27;20919;-82
2021/09/28 10:30:50;;;;;;;0.20;0.20;;;;;;;20.93;52.62;102261.03;5058244;28;20406;-81
2021/09/28 10:36:11;;;;;;;0.40;0.40;;;;;;;21.14;51.23;102261.09;5102668;27;20440;-82
2021/09/28 10:38:43;;;;;;;1.17;0.95;;;;;;;21.32;51.67;102252.22;5098909;28;20514;-83
2021/09/28 10:41:29;;;;;;;0.10;0.10;;;;;;;21.40;50.31;102256.41;5087651;28;20056;-80
2021/09/28 10:44:16;;;;;;;0.15;0.15;;;;;;;21.53;49.79;102251.34;5075267;28;20434;-78
2021/09/28 10:46:42;;;;;;;0.10;0.10;;;;;;;21.39;48.56;102249.25;5081978;28;20044;-78
2021/09/28 10:49:22;;;;;;;0.88;0.88;;;;;;;21.59;49.77;102240.31;5083104;28;20046;-80
2021/09/28 10:51:49;;;;;;;0.13;0.13;;;;;;;21.68;49.60;102234.50;5087238;28;20040;-79
2021/09/28 10:54:15;;;;;;;0.10;0.10;;;;;;;21.74;47.91;102239.63;5076623;28;20039;-77
2021/09/28 10:56:57;;;;;;;0.10;0.10;;;;;;;21.90;49.55;102234.41;5073122;28;20376;-79
2021/09/28 10:59:59;;;;;;;0.10;0.10;;;;;;;22.10;48.55;102224.53;5080465;28;20036;-78
2021/09/28 11:08:22;;;;;;;1.65;1.08;;;;;;;22.41;47.49;102231.19;5072470;27;20488;-79
2021/09/28 11:10:58;;;;;;;0.00;0.00;;;;;;;22.46;46.23;102218.34;5067266;28;20024;-78
2021/09/28 11:13:29;;;;;;;0.05;0.05;;;;;;;22.67;46.61;102223.63;5050540;28;20047;-77
2021/09/28 11:15:58;;;;;;;0.28;0.28;;;;;;;22.73;44.36;102223.31;5048861;28;20071;-79
2021/09/28 11:18:24;;;;;;;0.10;0.10;;;;;;;22.74;43.62;102220.56;5043309;28;20526;-79
2021/09/28 11:20:51;;;;;;;0.00;0.00;;;;;;;22.73;42.85;102220.63;5046810;28;20045;-79
2021/09/28 11:23:17;;;;;;;0.20;0.20;;;;;;;22.70;43.70;102218.09;5044066;28;20037;-80
2021/09/28 11:25:51;;;;;;;0.75;0.68;;;;;;;22.75;45.66;102210.63;5048603;28;20045;-77
2021/09/28 11:28:20;;;;;;;0.03;0.03;;;;;;;22.56;44.90;102210.69;5048643;28;20052;-79
2021/09/28 11:31:06;;;;;;;0.65;0.65;;;;;;;22.46;44.45;102207.53;5047215;28;20029;-79
2021/09/28 11:33:42;;;;;;;1.15;0.32;;;;;;;22.41;45.46;102196.09;5046550;28;20424;-77
2021/09/28 11:38:52;;;;;;;0.38;0.38;;;;;;;22.57;46.20;102193.53;5069964;28;20427;-82
2021/09/28 11:41:21;;;;;;;0.30;0.30;;;;;;;22.73;46.21;102186.41;5070623;28;20040;-81
2021/09/28 11:43:55;;;;;;;0.10;0.10;;;;;;;22.79;44.84;102182.50;5070273;28;20499;-82
2021/09/28 11:46:24;;;;;;;0.20;0.20;;;;;;;22.94;43.90;102181.72;5070680;28;20094;-82
2021/09/28 11:48:57;;;;;;;0.10;0.10;;;;;;;23.10;44.44;102179.13;5070603;28;20039;-78
2021/09/28 11:51:28;;;;;;;0.10;0.10;;;;;;;23.06;42.63;102173.94;5070719;28;20403;-81
2021/09/28 11:56:41;;;;;;;0.20;0.20;;;;;;;23.24;42.80;102170.31;5090931;27;20422;-83
2021/09/28 11:59:16;;;;;;;0.10;0.10;;;;;;;23.46;43.07;102171.88;5070941;28;20063;-83
2021/09/28 12:01:43;;;;;;;1.40;0.13;;;;;;;23.44;40.70;102171.09;5064746;28;20052;-81
2021/09/28 12:10:17;;;;;;;0.10;0.10;;;;;;;23.23;38.01;102168.56;5043413;28;20436;-81
2021/09/28 12:12:45;;;;;;;0.57;0.57;;;;;;;22.94;39.61;102159.22;5014885;28;20116;-81
2021/09/28 12:15:12;;;;;;;0.10;0.10;;;;;;;22.78;39.28;102161.84;5010944;28;20077;-80